You are listening to:
RJAA Ground #1 - Tokyo, Japan

RJAA 051730Z 33008KT 9999 FEW020 SCT030 BKN060 07/04 Q1030 NOSIG RMK 1CU020 3SC030 7SC060 A3043

If stream doesn't start automatically press the play button
If stream stops then reload player then press play